sensor_id;sensor_type;location;lat;lon;timestamp;temperature;humidity
13652;DHT22;6899;51.546;6.912;2022-10-16T00:01:09;11.60;99.90
13652;DHT22;6899;51.546;6.912;2022-10-16T00:03:37;11.50;99.90
13652;DHT22;6899;51.546;6.912;2022-10-16T00:06:05;11.50;99.90
13652;DHT22;6899;51.546;6.912;2022-10-16T00:08:32;11.40;99.90
13652;DHT22;6899;51.546;6.912;2022-10-16T00:11:00;11.40;99.90
13652;DHT22;6899;51.546;6.912;2022-10-16T00:13:28;11.30;99.90
13652;DHT22;6899;51.546;6.912;2022-10-16T00:15:55;11.30;99.90
13652;DHT22;6899;51.546;6.912;2022-10-16T00:18:24;11.20;99.90
13652;DHT22;6899;51.546;6.912;2022-10-16T00:20:52;11.20;99.90
13652;DHT22;6899;51.546;6.912;2022-10-16T00:23:19;11.30;99.90
13652;DHT22;6899;51.546;6.912;2022-10-16T00:25:54;11.30;99.90
13652;DHT22;6899;51.546;6.912;2022-10-16T00:28:22;11.30;99.90
13652;DHT22;6899;51.546;6.912;2022-10-16T00:30:49;11.20;99.90
13652;DHT22;6899;51.546;6.912;2022-10-16T00:33:16;11.30;99.90
13652;DHT22;6899;51.546;6.912;2022-10-16T00:35:44;11.30;99.90
13652;DHT22;6899;51.546;6.912;2022-10-16T00:38:11;11.40;99.90
13652;DHT22;6899;51.546;6.912;2022-10-16T00:40:38;11.50;99.90
13652;DHT22;6899;51.546;6.912;2022-10-16T00:43:12;11.50;99.90
13652;DHT22;6899;51.546;6.912;2022-10-16T00:45:40;11.60;99.90
13652;DHT22;6899;51.546;6.912;2022-10-16T00:48:11;11.60;99.90
13652;DHT22;6899;51.546;6.912;2022-10-16T00:50:40;11.70;99.90
13652;DHT22;6899;51.546;6.912;2022-10-16T00:53:11;11.70;99.90
13652;DHT22;6899;51.546;6.912;2022-10-16T00:55:38;11.70;99.90
13652;DHT22;6899;51.546;6.912;2022-10-16T00:58:05;11.70;99.90
13652;DHT22;6899;51.546;6.912;2022-10-16T01:00:32;11.60;99.90
13652;DHT22;6899;51.546;6.912;2022-10-16T01:03:00;11.60;99.90
13652;DHT22;6899;51.546;6.912;2022-10-16T01:05:39;11.60;99.90
13652;DHT22;6899;51.546;6.912;2022-10-16T01:08:13;11.70;99.90
13652;DHT22;6899;51.546;6.912;2022-10-16T01:10:54;11.60;99.90
13652;DHT22;6899;51.546;6.912;2022-10-16T01:13:27;11.60;99.90
13652;DHT22;6899;51.546;6.912;2022-10-16T01:16:05;11.50;99.90
13652;DHT22;6899;51.546;6.912;2022-10-16T01:18:36;11.50;99.90
13652;DHT22;6899;51.546;6.912;2022-10-16T01:21:07;11.40;99.90
13652;DHT22;6899;51.546;6.912;2022-10-16T01:23:48;11.30;99.90
13652;DHT22;6899;51.546;6.912;2022-10-16T01:26:28;11.20;99.90
13652;DHT22;6899;51.546;6.912;2022-10-16T01:29:03;11.10;99.90
13652;DHT22;6899;51.546;6.912;2022-10-16T01:31:34;11.10;99.90
13652;DHT22;6899;51.546;6.912;2022-10-16T01:34:05;11.10;99.90
13652;DHT22;6899;51.546;6.912;2022-10-16T01:36:37;11.10;99.90
13652;DHT22;6899;51.546;6.912;2022-10-16T01:39:08;11.10;99.90
13652;DHT22;6899;51.546;6.912;2022-10-16T01:41:39;11.00;99.90
13652;DHT22;6899;51.546;6.912;2022-10-16T01:44:11;11.10;99.90
13652;DHT22;6899;51.546;6.912;2022-10-16T01:46:43;11.00;99.90
13652;DHT22;6899;51.546;6.912;2022-10-16T01:49:12;11.00;99.90
13652;DHT22;6899;51.546;6.912;2022-10-16T01:51:39;11.00;99.90
13652;DHT22;6899;51.546;6.912;2022-10-16T01:54:08;11.00;99.90
13652;DHT22;6899;51.546;6.912;2022-10-16T01:56:36;11.00;99.90
13652;DHT22;6899;51.546;6.912;2022-10-16T01:59:09;11.00;99.90
13652;DHT22;6899;51.546;6.912;2022-10-16T02:01:39;11.10;99.90
13652;DHT22;6899;51.546;6.912;2022-10-16T02:04:13;11.10;99.90
13652;DHT22;6899;51.546;6.912;2022-10-16T02:06:41;11.20;99.90
13652;DHT22;6899;51.546;6.912;2022-10-16T02:09:08;11.20;99.90
13652;DHT22;6899;51.546;6.912;2022-10-16T02:11:35;11.30;99.90
13652;DHT22;6899;51.546;6.912;2022-10-16T02:14:04;11.40;99.90
13652;DHT22;6899;51.546;6.912;2022-10-16T02:16:38;11.50;99.90
13652;DHT22;6899;51.546;6.912;2022-10-16T02:19:06;11.50;99.90
13652;DHT22;6899;51.546;6.912;2022-10-16T02:21:39;11.50;99.90
13652;DHT22;6899;51.546;6.912;2022-10-16T02:24:13;11.50;99.90
13652;DHT22;6899;51.546;6.912;2022-10-16T02:26:47;11.50;99.90
13652;DHT22;6899;51.546;6.912;2022-10-16T02:29:20;11.60;99.90
13652;DHT22;6899;51.546;6.912;2022-10-16T02:31:53;11.60;99.90
13652;DHT22;6899;51.546;6.912;2022-10-16T02:34:24;11.50;99.90
13652;DHT22;6899;51.546;6.912;2022-10-16T02:36:53;11.50;99.90
13652;DHT22;6899;51.546;6.912;2022-10-16T02:39:21;11.30;99.90
13652;DHT22;6899;51.546;6.912;2022-10-16T02:41:48;11.30;99.90
13652;DHT22;6899;51.546;6.912;2022-10-16T02:44:15;11.40;99.90
13652;DHT22;6899;51.546;6.912;2022-10-16T02:46:42;11.50;99.90
13652;DHT22;6899;51.546;6.912;2022-10-16T02:49:11;11.40;99.90
13652;DHT22;6899;51.546;6.912;2022-10-16T02:51:37;11.40;99.90
13652;DHT22;6899;51.546;6.912;2022-10-16T02:54:04;11.40;99.90
13652;DHT22;6899;51.546;6.912;2022-10-16T02:56:31;11.40;99.90
13652;DHT22;6899;51.546;6.912;2022-10-16T02:58:58;11.40;99.90
13652;DHT22;6899;51.546;6.912;2022-10-16T03:01:25;11.40;99.90
13652;DHT22;6899;51.546;6.912;2022-10-16T03:03:52;11.40;99.90
13652;DHT22;6899;51.546;6.912;2022-10-16T03:06:21;11.50;99.90
13652;DHT22;6899;51.546;6.912;2022-10-16T03:08:49;11.50;99.90
13652;DHT22;6899;51.546;6.912;2022-10-16T03:11:16;11.50;99.90
13652;DHT22;6899;51.546;6.912;2022-10-16T03:13:43;11.60;99.90
13652;DHT22;6899;51.546;6.912;2022-10-16T03:16:10;11.70;99.90
13652;DHT22;6899;51.546;6.912;2022-10-16T03:18:36;11.70;99.90
13652;DHT22;6899;51.546;6.912;2022-10-16T03:21:03;11.70;99.90
13652;DHT22;6899;51.546;6.912;2022-10-16T03:23:32;11.70;99.90
13652;DHT22;6899;51.546;6.912;2022-10-16T03:25:58;11.70;99.90
13652;DHT22;6899;51.546;6.912;2022-10-16T03:28:25;11.70;99.90
13652;DHT22;6899;51.546;6.912;2022-10-16T03:30:52;11.60;99.90
13652;DHT22;6899;51.546;6.912;2022-10-16T03:33:19;11.60;99.90
13652;DHT22;6899;51.546;6.912;2022-10-16T03:35:51;11.60;99.90
13652;DHT22;6899;51.546;6.912;2022-10-16T03:38:18;11.50;99.90
13652;DHT22;6899;51.546;6.912;2022-10-16T03:40:46;11.40;99.90
13652;DHT22;6899;51.546;6.912;2022-10-16T03:43:13;11.50;99.90
13652;DHT22;6899;51.546;6.912;2022-10-16T03:45:40;11.50;99.90
13652;DHT22;6899;51.546;6.912;2022-10-16T03:48:07;11.40;99.90
13652;DHT22;6899;51.546;6.912;2022-10-16T03:50:34;11.40;99.90
13652;DHT22;6899;51.546;6.912;2022-10-16T03:53:01;11.30;99.90
13652;DHT22;6899;51.546;6.912;2022-10-16T03:55:27;11.30;99.90
13652;DHT22;6899;51.546;6.912;2022-10-16T03:57:55;11.30;99.90
13652;DHT22;6899;51.546;6.912;2022-10-16T04:00:22;11.40;99.90
13652;DHT22;6899;51.546;6.912;2022-10-16T04:02:49;11.30;99.90
13652;DHT22;6899;51.546;6.912;2022-10-16T04:05:16;11.30;99.90
13652;DHT22;6899;51.546;6.912;2022-10-16T04:07:43;11.40;99.90
13652;DHT22;6899;51.546;6.912;2022-10-16T04:10:10;11.50;99.90
13652;DHT22;6899;51.546;6.912;2022-10-16T04:12:37;11.40;99.90
13652;DHT22;6899;51.546;6.912;2022-10-16T04:15:05;11.50;99.90
13652;DHT22;6899;51.546;6.912;2022-10-16T04:17:33;11.40;99.90
13652;DHT22;6899;51.546;6.912;2022-10-16T04:19:59;11.50;99.90
13652;DHT22;6899;51.546;6.912;2022-10-16T04:22:26;11.50;99.90
13652;DHT22;6899;51.546;6.912;2022-10-16T04:24:53;11.40;99.90
13652;DHT22;6899;51.546;6.912;2022-10-16T04:27:20;11.30;99.90
13652;DHT22;6899;51.546;6.912;2022-10-16T04:29:47;11.30;99.90
13652;DHT22;6899;51.546;6.912;2022-10-16T04:32:15;11.30;99.90
13652;DHT22;6899;51.546;6.912;2022-10-16T04:34:42;11.30;99.90
13652;DHT22;6899;51.546;6.912;2022-10-16T04:37:09;11.30;99.90
13652;DHT22;6899;51.546;6.912;2022-10-16T04:39:35;11.30;99.90
13652;DHT22;6899;51.546;6.912;2022-10-16T04:42:02;11.30;99.90
13652;DHT22;6899;51.546;6.912;2022-10-16T04:44:29;11.30;99.90
13652;DHT22;6899;51.546;6.912;2022-10-16T04:46:56;11.30;99.90
13652;DHT22;6899;51.546;6.912;2022-10-16T04:49:24;11.40;99.90
13652;DHT22;6899;51.546;6.912;2022-10-16T04:51:51;11.30;99.90
13652;DHT22;6899;51.546;6.912;2022-10-16T04:54:18;11.30;99.90
13652;DHT22;6899;51.546;6.912;2022-10-16T04:56:45;11.30;99.90
13652;DHT22;6899;51.546;6.912;2022-10-16T04:59:13;11.40;99.90
13652;DHT22;6899;51.546;6.912;2022-10-16T05:01:40;11.40;99.90
13652;DHT22;6899;51.546;6.912;2022-10-16T05:04:07;11.40;99.90
13652;DHT22;6899;51.546;6.912;2022-10-16T05:06:36;11.40;99.90
13652;DHT22;6899;51.546;6.912;2022-10-16T05:09:04;11.40;99.90
13652;DHT22;6899;51.546;6.912;2022-10-16T05:11:31;11.40;99.90
13652;DHT22;6899;51.546;6.912;2022-10-16T05:13:58;11.50;99.90
13652;DHT22;6899;51.546;6.912;2022-10-16T05:16:24;11.50;99.90
13652;DHT22;6899;51.546;6.912;2022-10-16T05:18:52;11.50;99.90
13652;DHT22;6899;51.546;6.912;2022-10-16T05:21:20;11.50;99.90
13652;DHT22;6899;51.546;6.912;2022-10-16T05:23:48;11.60;99.90
13652;DHT22;6899;51.546;6.912;2022-10-16T05:26:15;11.50;99.90
13652;DHT22;6899;51.546;6.912;2022-10-16T05:28:42;11.50;99.90
13652;DHT22;6899;51.546;6.912;2022-10-16T05:31:09;11.50;99.90
13652;DHT22;6899;51.546;6.912;2022-10-16T05:33:36;11.40;99.90
13652;DHT22;6899;51.546;6.912;2022-10-16T05:36:04;11.40;99.90
13652;DHT22;6899;51.546;6.912;2022-10-16T05:38:33;11.30;99.90
13652;DHT22;6899;51.546;6.912;2022-10-16T05:41:03;11.40;99.90
13652;DHT22;6899;51.546;6.912;2022-10-16T05:43:31;11.30;99.90
13652;DHT22;6899;51.546;6.912;2022-10-16T05:46:00;11.40;99.90
13652;DHT22;6899;51.546;6.912;2022-10-16T05:48:27;11.30;99.90
13652;DHT22;6899;51.546;6.912;2022-10-16T05:50:58;11.30;99.90
13652;DHT22;6899;51.546;6.912;2022-10-16T05:53:27;11.40;99.90
13652;DHT22;6899;51.546;6.912;2022-10-16T05:55:54;11.30;99.90
13652;DHT22;6899;51.546;6.912;2022-10-16T05:58:23;11.20;99.90
13652;DHT22;6899;51.546;6.912;2022-10-16T06:00:54;11.20;99.90
13652;DHT22;6899;51.546;6.912;2022-10-16T06:03:21;11.20;99.90
13652;DHT22;6899;51.546;6.912;2022-10-16T06:05:48;11.20;99.90
13652;DHT22;6899;51.546;6.912;2022-10-16T06:08:15;11.20;99.90
13652;DHT22;6899;51.546;6.912;2022-10-16T06:10:42;11.20;99.90
13652;DHT22;6899;51.546;6.912;2022-10-16T06:13:10;11.10;99.90
13652;DHT22;6899;51.546;6.912;2022-10-16T06:15:39;11.10;99.90
13652;DHT22;6899;51.546;6.912;2022-10-16T06:18:07;11.30;99.90
13652;DHT22;6899;51.546;6.912;2022-10-16T06:20:34;11.30;99.90
13652;DHT22;6899;51.546;6.912;2022-10-16T06:23:01;11.30;99.90
13652;DHT22;6899;51.546;6.912;2022-10-16T06:25:29;11.40;99.90
13652;DHT22;6899;51.546;6.912;2022-10-16T06:27:56;11.40;99.90
13652;DHT22;6899;51.546;6.912;2022-10-16T06:30:23;11.50;99.90
13652;DHT22;6899;51.546;6.912;2022-10-16T06:32:51;11.60;99.90
13652;DHT22;6899;51.546;6.912;2022-10-16T06:35:18;11.70;99.90
13652;DHT22;6899;51.546;6.912;2022-10-16T06:37:45;11.60;99.90
13652;DHT22;6899;51.546;6.912;2022-10-16T06:40:12;11.60;99.90
13652;DHT22;6899;51.546;6.912;2022-10-16T06:42:40;11.70;99.90
13652;DHT22;6899;51.546;6.912;2022-10-16T06:45:07;11.80;99.90
13652;DHT22;6899;51.546;6.912;2022-10-16T06:47:34;11.80;99.90
13652;DHT22;6899;51.546;6.912;2022-10-16T06:50:03;11.80;99.90
13652;DHT22;6899;51.546;6.912;2022-10-16T06:52:32;11.80;99.90
13652;DHT22;6899;51.546;6.912;2022-10-16T06:54:59;11.70;99.90
13652;DHT22;6899;51.546;6.912;2022-10-16T06:57:26;11.70;99.90
13652;DHT22;6899;51.546;6.912;2022-10-16T06:59:52;11.70;99.90
13652;DHT22;6899;51.546;6.912;2022-10-16T07:02:19;11.70;99.90
13652;DHT22;6899;51.546;6.912;2022-10-16T07:04:46;11.70;99.90
13652;DHT22;6899;51.546;6.912;2022-10-16T07:07:15;11.70;99.90
13652;DHT22;6899;51.546;6.912;2022-10-16T07:09:41;11.80;99.90
13652;DHT22;6899;51.546;6.912;2022-10-16T07:12:08;11.90;99.90
13652;DHT22;6899;51.546;6.912;2022-10-16T07:14:35;11.90;99.90
13652;DHT22;6899;51.546;6.912;2022-10-16T07:17:02;11.80;99.90
13652;DHT22;6899;51.546;6.912;2022-10-16T07:19:29;11.80;99.90
13652;DHT22;6899;51.546;6.912;2022-10-16T07:21:57;11.70;99.90
13652;DHT22;6899;51.546;6.912;2022-10-16T07:24:26;11.70;99.90
13652;DHT22;6899;51.546;6.912;2022-10-16T07:26:53;11.70;99.90
13652;DHT22;6899;51.546;6.912;2022-10-16T07:29:20;12.00;99.90
13652;DHT22;6899;51.546;6.912;2022-10-16T07:31:48;12.20;99.90
13652;DHT22;6899;51.546;6.912;2022-10-16T07:34:17;12.40;99.90
13652;DHT22;6899;51.546;6.912;2022-10-16T07:36:47;12.50;99.90
13652;DHT22;6899;51.546;6.912;2022-10-16T07:39:14;12.60;99.90
13652;DHT22;6899;51.546;6.912;2022-10-16T07:41:42;12.80;99.90
13652;DHT22;6899;51.546;6.912;2022-10-16T07:44:09;12.90;99.90
13652;DHT22;6899;51.546;6.912;2022-10-16T07:46:36;13.00;99.90
13652;DHT22;6899;51.546;6.912;2022-10-16T07:49:03;13.10;99.90
13652;DHT22;6899;51.546;6.912;2022-10-16T07:51:30;13.20;99.90
13652;DHT22;6899;51.546;6.912;2022-10-16T07:53:57;13.30;99.90
13652;DHT22;6899;51.546;6.912;2022-10-16T07:56:24;13.40;99.90
13652;DHT22;6899;51.546;6.912;2022-10-16T07:58:52;13.50;99.90
13652;DHT22;6899;51.546;6.912;2022-10-16T08:01:19;13.70;99.90
13652;DHT22;6899;51.546;6.912;2022-10-16T08:03:48;13.70;99.90
13652;DHT22;6899;51.546;6.912;2022-10-16T08:06:15;13.70;99.90
13652;DHT22;6899;51.546;6.912;2022-10-16T08:08:42;13.90;99.90
13652;DHT22;6899;51.546;6.912;2022-10-16T08:11:09;14.00;99.90
13652;DHT22;6899;51.546;6.912;2022-10-16T08:13:37;14.10;99.90
13652;DHT22;6899;51.546;6.912;2022-10-16T08:16:05;14.20;99.90
13652;DHT22;6899;51.546;6.912;2022-10-16T08:18:33;14.30;99.90
13652;DHT22;6899;51.546;6.912;2022-10-16T08:21:01;14.50;99.90
13652;DHT22;6899;51.546;6.912;2022-10-16T08:23:29;14.60;99.90
13652;DHT22;6899;51.546;6.912;2022-10-16T08:26:01;14.70;99.90
13652;DHT22;6899;51.546;6.912;2022-10-16T08:28:28;14.90;99.90
13652;DHT22;6899;51.546;6.912;2022-10-16T08:30:55;15.10;99.90
13652;DHT22;6899;51.546;6.912;2022-10-16T08:33:24;15.40;99.90
13652;DHT22;6899;51.546;6.912;2022-10-16T08:35:51;15.40;99.90
13652;DHT22;6899;51.546;6.912;2022-10-16T08:38:19;15.50;99.90
13652;DHT22;6899;51.546;6.912;2022-10-16T08:40:46;15.60;99.90
13652;DHT22;6899;51.546;6.912;2022-10-16T08:43:40;15.80;99.90
13652;DHT22;6899;51.546;6.912;2022-10-16T08:46:26;16.00;99.90
13652;DHT22;6899;51.546;6.912;2022-10-16T08:48:59;16.00;99.90
13652;DHT22;6899;51.546;6.912;2022-10-16T08:51:29;16.10;99.90
13652;DHT22;6899;51.546;6.912;2022-10-16T08:53:58;16.20;99.90
13652;DHT22;6899;51.546;6.912;2022-10-16T08:56:26;16.40;99.90
13652;DHT22;6899;51.546;6.912;2022-10-16T08:58:53;16.50;99.90
13652;DHT22;6899;51.546;6.912;2022-10-16T09:01:22;16.60;99.90
13652;DHT22;6899;51.546;6.912;2022-10-16T09:04:12;16.60;99.90
13652;DHT22;6899;51.546;6.912;2022-10-16T09:06:46;16.80;99.90
13652;DHT22;6899;51.546;6.912;2022-10-16T09:09:34;17.10;99.90
13652;DHT22;6899;51.546;6.912;2022-10-16T09:12:10;17.30;99.90
13652;DHT22;6899;51.546;6.912;2022-10-16T09:14:50;17.40;99.90
13652;DHT22;6899;51.546;6.912;2022-10-16T09:17:29;17.40;99.90
13652;DHT22;6899;51.546;6.912;2022-10-16T09:20:09;17.20;99.90
13652;DHT22;6899;51.546;6.912;2022-10-16T09:22:39;17.30;99.90
13652;DHT22;6899;51.546;6.912;2022-10-16T09:25:12;17.20;99.90
13652;DHT22;6899;51.546;6.912;2022-10-16T09:27:39;17.10;99.90
13652;DHT22;6899;51.546;6.912;2022-10-16T09:30:12;17.30;99.90
13652;DHT22;6899;51.546;6.912;2022-10-16T09:32:39;17.40;99.90
13652;DHT22;6899;51.546;6.912;2022-10-16T09:35:13;17.60;99.90
13652;DHT22;6899;51.546;6.912;2022-10-16T09:37:42;17.70;99.90
13652;DHT22;6899;51.546;6.912;2022-10-16T09:40:13;17.70;99.90
13652;DHT22;6899;51.546;6.912;2022-10-16T09:42:40;17.70;99.90
13652;DHT22;6899;51.546;6.912;2022-10-16T09:45:20;17.70;99.90
13652;DHT22;6899;51.546;6.912;2022-10-16T09:47:48;17.70;99.90
13652;DHT22;6899;51.546;6.912;2022-10-16T09:50:25;17.80;99.90
13652;DHT22;6899;51.546;6.912;2022-10-16T09:53:08;18.00;99.90
13652;DHT22;6899;51.546;6.912;2022-10-16T09:55:48;18.10;99.90
13652;DHT22;6899;51.546;6.912;2022-10-16T09:58:15;18.10;99.90
13652;DHT22;6899;51.546;6.912;2022-10-16T10:00:49;18.10;99.90
13652;DHT22;6899;51.546;6.912;2022-10-16T10:03:33;17.90;99.90
13652;DHT22;6899;51.546;6.912;2022-10-16T10:06:06;17.80;99.90
13652;DHT22;6899;51.546;6.912;2022-10-16T10:08:33;17.80;99.90
13652;DHT22;6899;51.546;6.912;2022-10-16T10:11:03;18.00;99.90
13652;DHT22;6899;51.546;6.912;2022-10-16T10:13:30;18.20;99.90
13652;DHT22;6899;51.546;6.912;2022-10-16T10:15:57;18.20;99.90
13652;DHT22;6899;51.546;6.912;2022-10-16T10:18:24;18.50;99.90
13652;DHT22;6899;51.546;6.912;2022-10-16T10:20:59;18.50;99.90
13652;DHT22;6899;51.546;6.912;2022-10-16T10:23:28;18.90;99.90
13652;DHT22;6899;51.546;6.912;2022-10-16T10:25:59;19.40;99.90
13652;DHT22;6899;51.546;6.912;2022-10-16T10:28:45;19.40;99.90
13652;DHT22;6899;51.546;6.912;2022-10-16T10:31:18;19.80;99.90
13652;DHT22;6899;51.546;6.912;2022-10-16T10:33:54;20.20;99.90
13652;DHT22;6899;51.546;6.912;2022-10-16T10:36:34;20.40;99.90
13652;DHT22;6899;51.546;6.912;2022-10-16T10:39:07;20.40;99.90
13652;DHT22;6899;51.546;6.912;2022-10-16T10:42:00;20.30;99.90
13652;DHT22;6899;51.546;6.912;2022-10-16T10:44:42;20.30;99.90
13652;DHT22;6899;51.546;6.912;2022-10-16T10:47:21;20.30;99.90
13652;DHT22;6899;51.546;6.912;2022-10-16T10:49:57;20.40;99.90
13652;DHT22;6899;51.546;6.912;2022-10-16T10:52:38;20.40;99.90
13652;DHT22;6899;51.546;6.912;2022-10-16T10:55:18;20.50;99.90
13652;DHT22;6899;51.546;6.912;2022-10-16T10:58:03;20.60;99.90
13652;DHT22;6899;51.546;6.912;2022-10-16T11:00:41;20.80;99.90
13652;DHT22;6899;51.546;6.912;2022-10-16T11:03:20;20.80;99.90
13652;DHT22;6899;51.546;6.912;2022-10-16T11:05:52;20.90;99.90
13652;DHT22;6899;51.546;6.912;2022-10-16T11:08:26;20.80;99.90
13652;DHT22;6899;51.546;6.912;2022-10-16T11:11:00;20.80;99.90
13652;DHT22;6899;51.546;6.912;2022-10-16T11:13:32;21.30;99.90
13652;DHT22;6899;51.546;6.912;2022-10-16T11:16:03;21.70;99.90
13652;DHT22;6899;51.546;6.912;2022-10-16T11:18:40;21.70;99.90
13652;DHT22;6899;51.546;6.912;2022-10-16T11:21:11;21.00;99.90
13652;DHT22;6899;51.546;6.912;2022-10-16T11:23:47;20.90;99.90
13652;DHT22;6899;51.546;6.912;2022-10-16T11:26:20;21.10;99.90
13652;DHT22;6899;51.546;6.912;2022-10-16T11:28:50;21.00;99.90
13652;DHT22;6899;51.546;6.912;2022-10-16T11:31:24;20.80;99.90
13652;DHT22;6899;51.546;6.912;2022-10-16T11:33:57;20.60;99.90
13652;DHT22;6899;51.546;6.912;2022-10-16T11:36:31;20.20;99.90
13652;DHT22;6899;51.546;6.912;2022-10-16T11:39:04;20.10;99.90
13652;DHT22;6899;51.546;6.912;2022-10-16T11:41:41;20.00;99.90
13652;DHT22;6899;51.546;6.912;2022-10-16T11:44:19;20.00;99.90
13652;DHT22;6899;51.546;6.912;2022-10-16T11:46:51;19.80;99.90
13652;DHT22;6899;51.546;6.912;2022-10-16T11:49:21;19.90;99.90
13652;DHT22;6899;51.546;6.912;2022-10-16T11:51:58;20.30;99.90
13652;DHT22;6899;51.546;6.912;2022-10-16T11:54:32;20.80;99.90
13652;DHT22;6899;51.546;6.912;2022-10-16T11:57:05;21.80;99.90
13652;DHT22;6899;51.546;6.912;2022-10-16T11:59:39;22.10;99.90
13652;DHT22;6899;51.546;6.912;2022-10-16T12:02:28;22.70;99.90
13652;DHT22;6899;51.546;6.912;2022-10-16T12:05:14;22.60;98.80
13652;DHT22;6899;51.546;6.912;2022-10-16T12:07:49;22.70;99.40
13652;DHT22;6899;51.546;6.912;2022-10-16T12:10:21;22.40;99.40
13652;DHT22;6899;51.546;6.912;2022-10-16T12:12:50;22.30;98.50
13652;DHT22;6899;51.546;6.912;2022-10-16T12:15:23;21.90;99.20
13652;DHT22;6899;51.546;6.912;2022-10-16T12:17:51;21.50;99.90
13652;DHT22;6899;51.546;6.912;2022-10-16T12:20:27;21.40;99.90
13652;DHT22;6899;51.546;6.912;2022-10-16T12:22:57;21.90;99.90
13652;DHT22;6899;51.546;6.912;2022-10-16T12:25:27;22.10;99.20
13652;DHT22;6899;51.546;6.912;2022-10-16T12:27:59;22.00;98.20
13652;DHT22;6899;51.546;6.912;2022-10-16T12:30:28;22.10;99.90
13652;DHT22;6899;51.546;6.912;2022-10-16T12:32:56;22.10;99.10
13652;DHT22;6899;51.546;6.912;2022-10-16T12:35:26;22.00;99.90
13652;DHT22;6899;51.546;6.912;2022-10-16T12:37:54;21.50;98.80
13652;DHT22;6899;51.546;6.912;2022-10-16T12:40:33;20.90;99.90
13652;DHT22;6899;51.546;6.912;2022-10-16T12:43:24;20.20;99.90
13652;DHT22;6899;51.546;6.912;2022-10-16T12:46:00;19.50;99.90
13652;DHT22;6899;51.546;6.912;2022-10-16T12:48:27;19.30;99.90
13652;DHT22;6899;51.546;6.912;2022-10-16T12:50:57;19.10;99.90
13652;DHT22;6899;51.546;6.912;2022-10-16T12:53:35;19.00;99.90
13652;DHT22;6899;51.546;6.912;2022-10-16T12:56:08;19.20;99.90
13652;DHT22;6899;51.546;6.912;2022-10-16T12:59:00;19.20;99.90
13652;DHT22;6899;51.546;6.912;2022-10-16T13:01:39;19.20;99.90
13652;DHT22;6899;51.546;6.912;2022-10-16T13:04:22;19.10;99.90
13652;DHT22;6899;51.546;6.912;2022-10-16T13:06:58;19.20;99.90
13652;DHT22;6899;51.546;6.912;2022-10-16T13:09:43;19.30;99.90
13652;DHT22;6899;51.546;6.912;2022-10-16T13:12:45;19.50;99.90
13652;DHT22;6899;51.546;6.912;2022-10-16T13:15:29;19.60;99.90
13652;DHT22;6899;51.546;6.912;2022-10-16T13:18:07;19.70;99.90
13652;DHT22;6899;51.546;6.912;2022-10-16T13:20:46;19.70;99.90
13652;DHT22;6899;51.546;6.912;2022-10-16T13:23:23;19.70;99.90
13652;DHT22;6899;51.546;6.912;2022-10-16T13:26:04;19.60;99.90
13652;DHT22;6899;51.546;6.912;2022-10-16T13:28:34;19.60;99.90
13652;DHT22;6899;51.546;6.912;2022-10-16T13:31:04;19.70;99.90
13652;DHT22;6899;51.546;6.912;2022-10-16T13:33:34;19.80;99.90
13652;DHT22;6899;51.546;6.912;2022-10-16T13:36:02;19.90;99.90
13652;DHT22;6899;51.546;6.912;2022-10-16T13:38:30;19.90;99.90
13652;DHT22;6899;51.546;6.912;2022-10-16T13:40:59;19.60;99.90
13652;DHT22;6899;51.546;6.912;2022-10-16T13:43:29;19.30;99.90
13652;DHT22;6899;51.546;6.912;2022-10-16T13:46:00;19.10;99.90
13652;DHT22;6899;51.546;6.912;2022-10-16T13:48:29;18.90;99.90
13652;DHT22;6899;51.546;6.912;2022-10-16T13:51:05;19.00;99.90
13652;DHT22;6899;51.546;6.912;2022-10-16T13:53:33;19.00;99.90
13652;DHT22;6899;51.546;6.912;2022-10-16T13:56:03;19.10;99.90
13652;DHT22;6899;51.546;6.912;2022-10-16T13:58:30;19.40;99.90
13652;DHT22;6899;51.546;6.912;2022-10-16T14:00:59;19.60;99.90
13652;DHT22;6899;51.546;6.912;2022-10-16T14:03:29;19.90;99.90
13652;DHT22;6899;51.546;6.912;2022-10-16T14:05:59;20.20;99.90
13652;DHT22;6899;51.546;6.912;2022-10-16T14:08:28;20.50;99.90
13652;DHT22;6899;51.546;6.912;2022-10-16T14:10:57;20.90;99.90
13652;DHT22;6899;51.546;6.912;2022-10-16T14:13:30;21.20;99.90
13652;DHT22;6899;51.546;6.912;2022-10-16T14:16:02;21.20;99.90
13652;DHT22;6899;51.546;6.912;2022-10-16T14:18:33;20.80;99.90
13652;DHT22;6899;51.546;6.912;2022-10-16T14:21:06;20.40;99.90
13652;DHT22;6899;51.546;6.912;2022-10-16T14:23:35;19.80;99.90
13652;DHT22;6899;51.546;6.912;2022-10-16T14:26:15;19.30;99.90
13652;DHT22;6899;51.546;6.912;2022-10-16T14:28:42;19.20;99.90
13652;DHT22;6899;51.546;6.912;2022-10-16T14:31:27;19.20;99.90
13652;DHT22;6899;51.546;6.912;2022-10-16T14:33:56;19.20;99.90
13652;DHT22;6899;51.546;6.912;2022-10-16T14:36:25;19.00;99.90
13652;DHT22;6899;51.546;6.912;2022-10-16T14:39:01;19.00;99.90
13652;DHT22;6899;51.546;6.912;2022-10-16T14:41:30;19.10;99.90
13652;DHT22;6899;51.546;6.912;2022-10-16T14:44:01;19.30;99.90
13652;DHT22;6899;51.546;6.912;2022-10-16T14:46:31;19.70;99.90
13652;DHT22;6899;51.546;6.912;2022-10-16T14:49:05;20.00;99.90
13652;DHT22;6899;51.546;6.912;2022-10-16T14:51:41;20.10;99.90
13652;DHT22;6899;51.546;6.912;2022-10-16T14:54:14;20.00;99.90
13652;DHT22;6899;51.546;6.912;2022-10-16T14:56:46;20.00;99.90
13652;DHT22;6899;51.546;6.912;2022-10-16T14:59:16;19.90;99.90
13652;DHT22;6899;51.546;6.912;2022-10-16T15:01:44;19.80;99.90
13652;DHT22;6899;51.546;6.912;2022-10-16T15:04:12;19.70;99.90
13652;DHT22;6899;51.546;6.912;2022-10-16T15:06:39;19.50;99.90
13652;DHT22;6899;51.546;6.912;2022-10-16T15:09:06;19.40;99.90
13652;DHT22;6899;51.546;6.912;2022-10-16T15:11:34;19.20;99.90
13652;DHT22;6899;51.546;6.912;2022-10-16T15:14:01;19.10;99.90
13652;DHT22;6899;51.546;6.912;2022-10-16T15:16:29;18.90;99.90
13652;DHT22;6899;51.546;6.912;2022-10-16T15:18:56;18.80;99.90
13652;DHT22;6899;51.546;6.912;2022-10-16T15:21:26;18.60;99.90
13652;DHT22;6899;51.546;6.912;2022-10-16T15:23:54;18.40;99.90
13652;DHT22;6899;51.546;6.912;2022-10-16T15:26:22;18.30;99.90
13652;DHT22;6899;51.546;6.912;2022-10-16T15:28:49;18.20;99.90
13652;DHT22;6899;51.546;6.912;2022-10-16T15:31:16;18.20;99.90
13652;DHT22;6899;51.546;6.912;2022-10-16T15:33:43;18.30;99.90
13652;DHT22;6899;51.546;6.912;2022-10-16T15:36:13;18.20;99.90
13652;DHT22;6899;51.546;6.912;2022-10-16T15:38:41;18.20;99.90
13652;DHT22;6899;51.546;6.912;2022-10-16T15:41:09;18.10;99.90
13652;DHT22;6899;51.546;6.912;2022-10-16T15:43:36;18.20;99.90
13652;DHT22;6899;51.546;6.912;2022-10-16T15:46:05;18.10;99.90
13652;DHT22;6899;51.546;6.912;2022-10-16T15:48:33;18.10;99.90
13652;DHT22;6899;51.546;6.912;2022-10-16T15:51:00;18.10;99.90
13652;DHT22;6899;51.546;6.912;2022-10-16T15:53:26;18.00;99.90
13652;DHT22;6899;51.546;6.912;2022-10-16T15:55:55;17.80;99.90
13652;DHT22;6899;51.546;6.912;2022-10-16T15:58:22;17.60;99.90
13652;DHT22;6899;51.546;6.912;2022-10-16T16:00:55;17.50;99.90
13652;DHT22;6899;51.546;6.912;2022-10-16T16:03:22;17.30;99.90
13652;DHT22;6899;51.546;6.912;2022-10-16T16:05:49;17.10;99.90